Latest Coastal Weather Observations for Cape Flattery

IDQ60701

Issued at 8:21 am EST Thursday 14 December 2017 (issued every 10 minutes, with the page automatically refreshed every 10 minutes)

About coastal observations | Map of coastal stations | Coastal observations for QLD | Marine services | Other Formats
Station Details ID: 031213 Name: CAPE FLATTERY Lat: -14.97 Lon: 145.31 Height: 18.5 m
Data from the previous 72 hours. | See also: Recent months at Cape Flattery
Date/Time
EST
Temp
°C
Wind Pressure Rain since
9am
mm
Weather Cloud Vis
km
Sea
Height
m
Swell
Dir  Spd
kts
Gust
kts
hPa Trend Height
m
Period
s
Dir
14/08:00am 28.3 SE 13 18 1010.4 - 0.0 - - - - - - -
14/07:30am 28.2 SE 15 20 1010.0 - 0.0 - - - - - - -
14/07:00am 27.6 SE 15 23 1009.5 - 0.0 - - - - - - -
14/06:30am 27.1 SE 14 19 1009.1 - 0.0 - - - - - - -
14/06:00am 26.7 SE 14 20 1008.8 - 0.0 - - - - - - -
14/05:30am 26.4 SE 13 19 1008.8 - 0.0 - - - - - - -
14/05:00am 26.5 SE 13 20 1008.5 - 0.0 - - - - - - -
14/04:30am 26.4 SE 12 18 1008.5 - 0.0 - - - - - - -
14/04:00am 26.6 SE 14 20 1008.3 - 0.0 - - - - - - -
14/03:30am 26.6 SE 13 18 1007.9 - 0.0 - - - - - - -
14/03:00am 26.7 SE 14 19 1008.2 - 0.0 - - - - - - -
14/02:30am 26.7 SE 13 18 1008.3 - 0.0 - - - - - - -
14/02:00am 26.6 SE 13 18 1008.4 - 0.0 - - - - - - -
14/01:30am 26.7 SE 14 19 1008.7 - 0.0 - - - - - - -
14/01:00am 26.6 SE 15 21 1009.0 - 0.0 - - - - - - -
14/12:30am 26.8 SE 15 22 1009.4 - 0.0 - - - - - - -
14/12:00am 26.9 SE 14 19 1010.0 - 0.0 - - - - - - -
 
Date/Time
EST
Temp
°C
Wind Pressure Rain since
9am
mm
Weather Cloud Vis
km
Sea
Height
m
Swell
Dir  Spd
kts
Gust
kts
hPa Trend Height
m
Period
s
Dir
13/11:30pm 26.9 SE 15 21 1010.3 - 0.0 - - - - - - -
13/11:00pm 26.9 SE 14 20 1010.5 - 0.0 - - - - - - -
13/10:30pm 27.0 SE 16 21 1010.6 - 0.0 - - - - - - -
13/10:00pm 27.0 SE 15 21 1010.6 - 0.0 - - - - - - -
13/09:30pm 27.0 SE 13 20 1010.6 - 0.0 - - - - - - -
13/09:00pm 27.1 SE 16 22 1010.4 - 0.0 - - - - - - -
13/08:30pm 27.3 SE 15 21 1010.3 - 0.0 - - - - - - -
13/08:00pm 27.1 SE 14 18 1009.9 - 0.0 - - - - - - -
13/07:30pm 27.3 SE 15 19 1009.8 - 0.0 - - - - - - -
13/07:00pm 27.4 SE 15 21 1009.6 - 0.0 - - - - - - -
13/06:30pm 27.6 SE 14 19 1009.3 - 0.0 - - - - - - -
13/06:00pm 27.7 SE 15 20 1009.0 - 0.0 - - - - - - -
13/05:30pm 28.8 SE 17 21 1008.6 - 0.0 - - - - - - -
13/05:00pm 29.3 SE 17 21 1008.3 - 0.0 - - - - - - -
13/04:30pm 29.7 SE 18 23 1008.1 - 0.0 - - - - - - -
13/04:00pm 29.7 SSE 18 24 1008.0 - 0.0 - - - - - - -
13/03:30pm 30.2 SSE 17 23 1008.0 - 0.0 - - - - - - -
13/03:00pm 30.3 SE 19 25 1008.2 - 0.0 - - - - - - -
13/02:30pm 31.3 SSE 18 23 1008.4 - 0.0 - - - - - - -
13/02:00pm 32.2 SSE 16 23 1008.7 - 0.0 - - - - - - -
13/01:30pm 31.1 SE 17 21 1008.9 - 0.0 - - - - - - -
13/01:00pm 30.9 SE 17 21 1009.5 - 0.0 - - - - - - -
13/12:30pm 30.9 SSE 17 21 1009.7 - 0.0 - - - - - - -
13/12:00pm 31.5 SSE 17 22 1010.1 - 0.0 - - - - - - -
13/11:30am 31.7 SSE 15 21 1010.4 - 0.0 - - - - - - -
13/11:00am 31.0 SE 15 20 1010.8 - 0.0 - - - - - - -
13/10:30am 30.5 SE 16 23 1010.9 - 0.0 - - - - - - -
13/10:00am 30.4 SSE 17 21 1011.1 - 0.0 - - - - - - -
13/09:30am 29.3 SE 16 21 1011.1 - 0.0 - - - - - - -
13/09:00am 28.7 SE 13 17 1011.1 - 0.0 - - - - - - -
13/08:30am 28.4 SE 15 21 1010.9 - 0.0 - - - - - - -
13/08:00am 29.3 SE 15 21 1010.7 - 0.0 - - - - - - -
13/07:30am 28.3 SE 14 19 1010.5 - 0.0 - - - - - - -
13/07:00am 27.6 SE 14 20 1010.1 - 0.0 - - - - - - -
13/06:30am 27.1 SE 13 19 1009.7 - 0.0 - - - - - - -
13/06:00am 26.5 SE 12 16 1009.3 - 0.0 - - - - - - -
13/05:30am 26.2 SE 13 19 1008.8 - 0.0 - - - - - - -
13/05:00am 26.4 SE 13 17 1008.6 - 0.0 - - - - - - -
13/04:30am 26.6 SE 13 16 1008.3 - 0.0 - - - - - - -
13/04:00am 26.5 SE 13 19 1008.3 - 0.0 - - - - - - -
13/03:30am 26.5 SE 15 20 1008.6 - 0.0 - - - - - - -
13/03:00am 26.5 SE 13 19 1008.6 - 0.0 - - - - - - -
13/02:30am 26.4 SE 12 20 1008.7 - 0.0 - - - - - - -
13/02:00am 26.5 SE 13 20 1009.3 - 0.0 - - - - - - -
13/01:30am 26.7 SE 15 19 1009.4 - 0.0 - - - - - - -
13/01:00am 26.7 SE 15 20 1009.7 - 0.0 - - - - - - -
13/12:30am 26.9 SE 15 21 1010.3 - 0.0 - - - - - - -
13/12:00am 27.0 SE 13 19 1010.7 - 0.0 - - - - - - -
 
Date/Time
EST
Temp
°C
Wind Pressure Rain since
9am
mm
Weather Cloud Vis
km
Sea
Height
m
Swell
Dir  Spd
kts
Gust
kts
hPa Trend Height
m
Period
s
Dir
12/11:30pm 27.0 SE 13 18 1010.7 - 0.0 - - - - - - -
12/11:00pm 27.1 SE 17 22 1010.8 - 0.0 - - - - - - -
12/10:30pm 27.0 SE 14 22 1010.9 - 0.0 - - - - - - -
12/10:00pm 27.1 SE 15 21 1011.0 - 0.0 - - - - - - -
12/09:30pm 27.5 SE 16 23 1010.6 - 0.0 - - - - - - -
12/09:00pm 27.4 SE 15 23 1010.6 - 0.0 - - - - - - -
12/08:30pm 27.5 SE 16 21 1010.5 - 0.0 - - - - - - -
12/08:00pm 27.4 SE 17 24 1010.3 - 0.0 - - - - - - -
12/07:30pm 27.5 SE 16 22 1009.9 - 0.0 - - - - - - -
12/07:00pm 27.5 SE 18 23 1009.6 - 0.0 - - - - - - -
12/06:30pm 27.7 SE 18 25 1009.2 - 0.0 - - - - - - -
12/06:00pm 28.2 SE 18 24 1008.8 - 0.0 - - - - - - -
12/05:30pm 28.9 SSE 19 25 1008.6 - 0.0 - - - - - - -
12/05:00pm 29.5 SE 18 24 1008.4 - 0.0 - - - - - - -
12/04:30pm 29.8 SSE 19 24 1008.4 - 0.0 - - - - - - -
12/04:00pm 30.2 SSE 20 26 1008.4 - 0.0 - - - - - - -
12/03:30pm 30.5 SE 19 27 1008.7 - 0.0 - - - - - - -
12/03:00pm 31.3 SE 20 27 1009.0 - 0.0 - - - - - - -
12/02:30pm 30.9 SSE 18 24 1009.3 - 0.0 - - - - - - -
12/02:00pm 31.1 SE 19 24 1009.7 - 0.0 - - - - - - -
12/01:30pm 31.3 SE 19 23 1010.2 - 0.0 - - - - - - -
12/01:00pm 31.4 SSE 19 24 1010.3 - 0.0 - - - - - - -
12/12:30pm 31.3 SSE 18 23 1010.6 - 0.0 - - - - - - -
12/12:00pm 31.9 SE 18 23 1010.9 - 0.0 - - - - - - -
12/11:30am 31.9 SSE 17 23 1011.4 - 0.0 - - - - - - -
12/11:00am 31.6 SSE 16 21 1011.7 - 0.0 - - - - - - -
12/10:30am 30.6 SE 15 20 1012.2 - 0.0 - - - - - - -
12/10:00am 31.0 SE 15 20 1012.3 - 0.0 - - - - - - -
12/09:30am 29.9 SE 17 22 1012.5 - 0.0 - - - - - - -
12/09:00am 29.1 SE 14 19 1012.2 - 0.0 - - - - - - -
12/08:30am 29.1 SE 15 21 1011.9 - 0.0 - - - - - - -
12/08:00am 29.0 SE 14 20 1011.7 - 0.0 - - - - - - -
12/07:30am 28.4 SE 17 23 1011.4 - 0.0 - - - - - - -
12/07:00am 27.4 SE 13 19 1011.0 - 0.0 - - - - - - -
12/06:30am 27.3 SE 14 18 1010.7 - 0.0 - - - - - - -
12/06:00am 27.0 SE 12 17 1010.3 - 0.0 - - - - - - -
12/05:30am 26.7 SE 14 20 1009.7 - 0.0 - - - - - - -
12/05:00am 26.8 SE 13 17 1009.3 - 0.0 - - - - - - -
12/04:30am 26.8 SE 15 21 1009.3 - 0.0 - - - - - - -
12/04:00am 26.9 SE 15 21 1009.1 - 0.0 - - - - - - -
12/03:30am 26.8 SE 12 17 1008.9 - 0.0 - - - - - - -
12/03:00am 26.7 SE 12 16 1008.8 - 0.0 - - - - - - -
12/02:30am 26.8 SE 12 19 1008.9 - 0.0 - - - - - - -
12/02:00am 26.7 SE 13 19 1009.5 - 0.0 - - - - - - -
12/01:30am 27.0 SE 15 21 1009.9 - 0.0 - - - - - - -
12/01:00am 27.1 SE 15 21 1010.3 - 0.0 - - - - - - -
12/12:30am 27.1 SE 14 21 1010.6 - 0.0 - - - - - - -
12/12:00am 27.4 SE 17 23 1011.0 - 0.0 - - - - - - -
 
Date/Time
EST
Temp
°C
Wind Pressure Rain since
9am
mm
Weather Cloud Vis
km
Sea
Height
m
Swell
Dir  Spd
kts
Gust
kts
hPa Trend Height
m
Period
s
Dir
11/11:30pm 27.2 SE 16 22 1011.4 - 0.0 - - - - - - -
11/11:00pm 27.2 SE 16 23 1011.4 - 0.0 - - - - - - -
11/10:30pm 27.4 SE 16 21 1011.2 - 0.0 - - - - - - -
11/10:00pm 27.3 SE 15 21 1010.8 - 0.0 - - - - - - -
11/09:30pm 27.5 SE 16 23 1010.8 - 0.0 - - - - - - -
11/09:00pm 27.6 SE 17 25 1010.8 - 0.0 - - - - - - -
11/08:30pm 27.4 SE 16 23 1010.4 - 0.0 - - - - - - -
11/08:00pm 27.6 SE 18 25 1010.2 - 0.0 - - - - - - -
11/07:30pm 27.6 SE 18 24 1010.0 - 0.0 - - - - - - -
11/07:00pm 27.7 SE 17 25 1009.8 - 0.0 - - - - - - -
11/06:30pm 27.9 SE 17 24 1009.9 - 0.0 - - - - - - -
11/06:00pm 28.1 SE 19 23 1009.9 - 0.0 - - - - - - -
11/05:30pm 28.3 SSE 19 27 1009.6 - 0.0 - - - - - - -
11/05:00pm 28.6 SE 18 24 1009.6 - 0.0 - - - - - - -
11/04:30pm 28.8 SSE 19 25 1009.4 - 0.0 - - - - - - -
11/04:00pm 29.5 SSE 18 23 1009.5 - 0.0 - - - - - - -
11/03:30pm 31.6 SSE 19 26 1009.0 - 0.0 - - - - - - -
11/03:00pm 30.7 SSE 20 27 1009.1 - 0.0 - - - - - - -
11/02:30pm 31.5 SSE 20 26 1009.2 - 0.0 - - - - - - -
11/02:00pm 31.5 SSE 20 26 1009.5 - 0.0 - - - - - - -
11/01:30pm 31.2 SSE 20 27 1009.9 - 0.0 - - - - - - -
11/01:00pm 32.4 SE 17 25 1010.2 - 0.0 - - - - - - -
11/12:30pm 32.7 SSE 19 25 1010.5 - 0.0 - - - - - - -
11/12:00pm 31.8 SE 20 25 1010.8 - 0.0 - - - - - - -
11/11:30am 31.4 SSE 20 26 1011.0 - 0.0 - - - - - - -
11/11:00am 30.8 SSE 20 26 1011.4 - 0.0 - - - - - - -
11/10:30am 31.2 SE 19 27 1011.8 - 0.0 - - - - - - -
11/10:00am 31.5 SSE 19 27 1012.0 - 0.0 - - - - - - -
11/09:30am 30.1 SE 20 26 1012.0 - 0.0 - - - - - - -
11/09:00am 30.2 SE 19 25 1012.0 - 0.0 - - - - - - -
11/08:30am 29.2 SE 18 24 1011.8 - 0.0 - - - - - - -

Other Formats:

Comma delimited format used in spreadsheet applications
http://www.bom.gov.au/fwo/IDQ60701/IDQ60701.94188.axf

JavaScript Object Notation format (JSON) in row-major order
http://www.bom.gov.au/fwo/IDQ60701/IDQ60701.94188.json